Ascutney, Vermont
Current Conditions -  °F | °C
As of 2:54 PM on Friday 21 Nov 2014 (Local Time) from KVSF Reporting Station
Few Clouds Few Clouds  
Wind Chill: 17°   Ceiling: Unl
Heat Index: 28°   Visibility: 10mi
Dew Point: 10°   Wind: 14mph
Humidity: 47%   Direction: 290°WNW
Pressure: 30.22"   Gusts: 20mph
Location:  43.41°N, 72.41°W
Report Text: KVSF 211954Z AUTO 29012G17KT 10SM FEW045 M02/M12 A3022 RMK AO2 SNE1857 SLP243 P0000 T10221122
Loading
Personal Weather Stations






























Interactive Weather Map New forecast layout! Learn more

10-Day Weather Forecast

Advertisements
Track Severe Weather on mobile